Time;durP1;ratioP1;P1;durP2;ratioP2;P2;SDS_P1;SDS_P2;PMS_P1;PMS_P2;Temp;Humidity;BMP_temperature;BMP_pressure;BME280_temperature;BME280_humidity;BME280_pressure;Samples;Min_cycle;Max_cycle;Signal;HPM_P1;HPM_P2
2022/02/18 00:00:46;;;;;;;34.48;18.07;;;;;;;5.23;100.00;98274.55;1746131;82;21146;-74
2022/02/18 00:03:54;;;;;;;37.40;19.17;;;;;;;5.22;100.00;98282.34;1722202;82;21324;-75
2022/02/18 00:07:00;;;;;;;34.33;16.97;;;;;;;5.20;100.00;98290.67;1715705;83;21391;-75
2022/02/18 00:10:06;;;;;;;34.00;18.52;;;;;;;5.22;100.00;98291.34;1713029;82;21204;-75
2022/02/18 00:13:12;;;;;;;28.30;17.35;;;;;;;5.24;100.00;98286.55;1711818;84;21317;-84
2022/02/18 00:16:18;;;;;;;33.88;17.27;;;;;;;5.28;100.00;98293.27;1711808;84;21192;-75
2022/02/18 00:19:23;;;;;;;33.85;18.75;;;;;;;5.32;100.00;98291.86;1699667;84;21884;-83
2022/02/18 00:22:28;;;;;;;30.27;17.57;;;;;;;5.42;100.00;98305.62;1699704;84;21337;-83
2022/02/18 00:25:35;;;;;;;37.30;20.75;;;;;;;5.47;100.00;98305.36;1699809;84;21649;-75
2022/02/18 00:28:42;;;;;;;37.23;19.12;;;;;;;5.49;100.00;98296.50;1696864;84;21321;-82
2022/02/18 00:31:49;;;;;;;35.28;18.32;;;;;;;5.49;100.00;98295.15;1696859;84;22305;-74
2022/02/18 00:34:57;;;;;;;39.20;18.87;;;;;;;5.49;100.00;98301.09;1697037;84;22256;-82
2022/02/18 00:38:02;;;;;;;30.08;17.02;;;;;;;5.52;100.00;98291.23;1689195;82;21368;-75
2022/02/18 00:41:13;;;;;;;29.82;16.93;;;;;;;5.53;100.00;98285.59;1729576;83;21223;-83
2022/02/18 00:44:16;;;;;;;32.67;15.80;;;;;;;5.53;100.00;98279.34;1722874;82;21262;-75
2022/02/18 00:47:21;;;;;;;38.40;19.45;;;;;;;5.53;100.00;98277.98;1729091;83;21239;-75
2022/02/18 00:50:29;;;;;;;33.23;17.15;;;;;;;5.54;100.00;98264.22;1727766;83;21132;-75
2022/02/18 00:53:35;;;;;;;30.30;19.00;;;;;;;5.55;100.00;98263.21;1721705;82;21593;-80
2022/02/18 00:56:40;;;;;;;35.78;19.30;;;;;;;5.56;100.00;98266.23;1741869;82;21208;-83
2022/02/18 00:59:45;;;;;;;44.42;22.25;;;;;;;5.57;100.00;98275.21;1759821;81;21338;-84
2022/02/18 01:02:51;;;;;;;37.10;19.20;;;;;;;5.57;100.00;98271.98;1724934;82;21318;-84
2022/02/18 01:05:57;;;;;;;32.58;17.25;;;;;;;5.60;100.00;98274.83;1713376;83;21920;-75
2022/02/18 01:09:03;;;;;;;40.67;17.65;;;;;;;5.59;100.00;98282.62;1715067;83;21593;-76
2022/02/18 01:12:09;;;;;;;34.75;17.82;;;;;;;5.61;100.00;98278.70;1692727;83;21201;-84
2022/02/18 01:15:16;;;;;;;30.55;18.15;;;;;;;5.60;100.00;98263.98;1721636;83;21193;-84
2022/02/18 01:18:22;;;;;;;35.95;19.80;;;;;;;5.59;100.00;98269.90;1699598;84;21188;-83
2022/02/18 01:21:28;;;;;;;32.90;17.00;;;;;;;5.62;100.00;98270.04;1717565;83;21194;-83
2022/02/18 01:24:33;;;;;;;34.98;17.23;;;;;;;5.68;100.00;98268.42;1736131;82;21295;-75
2022/02/18 01:27:41;;;;;;;30.25;17.65;;;;;;;5.68;100.00;98271.13;1717646;83;21336;-83
2022/02/18 01:30:46;;;;;;;27.13;17.50;;;;;;;5.67;100.00;98262.68;1705167;84;21469;-83
2022/02/18 01:33:53;;;;;;;36.60;16.97;;;;;;;5.66;100.00;98264.55;1694874;83;21330;-82
2022/02/18 01:36:58;;;;;;;32.33;18.30;;;;;;;5.68;100.00;98267.90;1688796;85;21312;-83
2022/02/18 01:40:03;;;;;;;29.30;16.23;;;;;;;5.67;100.00;98258.61;1712633;83;21166;-75
2022/02/18 01:43:08;;;;;;;36.63;17.50;;;;;;;5.63;100.00;98254.08;1705072;84;21304;-84
2022/02/18 01:46:14;;;;;;;31.33;17.75;;;;;;;5.61;100.00;98251.58;1716047;83;21210;-75
2022/02/18 01:49:19;;;;;;;35.70;17.98;;;;;;;5.61;100.00;98248.03;1677012;84;21343;-83
2022/02/18 01:52:25;;;;;;;33.45;18.23;;;;;;;5.63;100.00;98236.45;1689088;85;21659;-75
2022/02/18 01:55:31;;;;;;;32.90;17.32;;;;;;;5.64;100.00;98240.84;1689263;85;21289;-80
2022/02/18 01:58:37;;;;;;;31.15;17.87;;;;;;;5.63;100.00;98252.20;1689253;85;21711;-83
2022/02/18 02:01:43;;;;;;;37.70;20.40;;;;;;;5.67;100.00;98239.63;1689117;85;21351;-83
2022/02/18 02:04:54;;;;;;;32.45;18.90;;;;;;;5.67;100.00;98242.34;1689171;85;21166;-75
2022/02/18 02:08:02;;;;;;;37.08;18.82;;;;;;;5.66;100.00;98236.59;1688929;85;21383;-75
2022/02/18 02:11:10;;;;;;;31.50;17.95;;;;;;;5.55;100.00;98227.95;1706780;83;21148;-75
2022/02/18 02:14:16;;;;;;;32.60;16.37;;;;;;;5.42;100.00;98229.19;1679116;85;21892;-75
2022/02/18 02:17:21;;;;;;;32.28;18.12;;;;;;;5.32;100.00;98228.67;1670676;85;21242;-83
2022/02/18 02:20:26;;;;;;;35.23;17.73;;;;;;;5.24;100.00;98236.41;1668414;86;21670;-83
2022/02/18 02:23:31;;;;;;;32.05;17.90;;;;;;;5.21;100.00;98242.20;1660148;85;21204;-83
2022/02/18 02:26:40;;;;;;;34.05;17.17;;;;;;;5.25;100.00;98244.85;1666055;84;21326;-84
2022/02/18 02:29:45;;;;;;;35.52;18.98;;;;;;;5.32;100.00;98257.14;1666193;86;21378;-75
2022/02/18 02:32:43;;;;;;;35.48;17.23;;;;;;;5.34;100.00;98262.67;1661711;84;21326;-75
2022/02/18 02:35:50;;;;;;;39.70;21.10;;;;;;;5.44;100.00;98264.23;1661865;86;21349;-76
2022/02/18 02:38:55;;;;;;;46.65;21.70;;;;;;;5.47;100.00;98266.56;1690006;82;21296;-83
2022/02/18 02:42:02;;;;;;;31.73;17.45;;;;;;;5.51;100.00;98276.00;1714121;82;21331;-74
2022/02/18 02:45:10;;;;;;;29.60;17.77;;;;;;;5.55;100.00;98289.47;1739850;82;21284;-75
2022/02/18 02:48:17;;;;;;;46.48;19.57;;;;;;;5.58;100.00;98288.56;1705657;82;21324;-83
2022/02/18 02:51:33;;;;;;;34.23;18.37;;;;;;;5.63;100.00;98286.63;1642721;85;21739;-75
2022/02/18 02:54:38;;;;;;;36.55;20.92;;;;;;;5.67;100.00;98300.66;1680485;84;21212;-75
2022/02/18 02:57:43;;;;;;;34.67;19.75;;;;;;;5.67;100.00;98302.84;1681340;85;21363;-75
2022/02/18 03:00:49;;;;;;;39.30;18.48;;;;;;;5.67;100.00;98301.48;1681549;85;21209;-75
2022/02/18 03:03:57;;;;;;;36.23;18.60;;;;;;;5.72;100.00;98294.13;1703344;84;21283;-75
2022/02/18 03:07:02;;;;;;;34.30;17.55;;;;;;;5.76;100.00;98296.26;1707546;83;21308;-85
2022/02/18 03:10:12;;;;;;;38.50;20.20;;;;;;;5.83;100.00;98303.09;1681135;84;21355;-85
2022/02/18 03:13:21;;;;;;;43.50;21.57;;;;;;;5.84;100.00;98300.72;1690317;82;21169;-77
2022/02/18 03:16:28;;;;;;;39.67;19.07;;;;;;;5.87;100.00;98286.74;1739267;82;21327;-85
2022/02/18 03:19:32;;;;;;;42.78;20.95;;;;;;;5.94;100.00;98279.55;1739122;82;21297;-85
2022/02/18 03:22:39;;;;;;;45.40;21.23;;;;;;;5.93;100.00;98265.66;1738561;82;21335;-76
2022/02/18 03:25:45;;;;;;;37.73;20.10;;;;;;;5.94;100.00;98277.35;1702001;84;21318;-76
2022/02/18 03:28:54;;;;;;;39.83;19.40;;;;;;;5.96;100.00;98268.48;1737939;82;21786;-84
2022/02/18 03:32:14;;;;;;;36.65;19.35;;;;;;;5.97;100.00;98273.70;1703470;84;21334;-76
2022/02/18 03:35:21;;;;;;;41.30;20.32;;;;;;;5.97;100.00;98264.73;1739027;82;21277;-75
2022/02/18 03:38:20;;;;;;;50.25;22.27;;;;;;;5.95;100.00;98274.44;1740755;79;21303;-76
2022/02/18 03:41:30;;;;;;;45.35;22.98;;;;;;;5.98;100.00;98271.34;1754492;81;21311;-77
2022/02/18 03:44:35;;;;;;;42.03;21.75;;;;;;;5.99;100.00;98267.58;1754663;81;21835;-85
2022/02/18 03:47:39;;;;;;;37.28;18.45;;;;;;;5.97;100.00;98277.78;1750136;81;21851;-76
2022/02/18 03:50:47;;;;;;;39.63;23.07;;;;;;;5.96;100.00;98277.98;1739011;82;21790;-85
2022/02/18 03:53:52;;;;;;;36.15;20.97;;;;;;;5.90;100.00;98287.20;1744242;79;21967;-76
2022/02/18 03:56:57;;;;;;;38.53;19.25;;;;;;;5.90;100.00;98300.77;1754577;81;21943;-76
2022/02/18 04:00:04;;;;;;;37.45;20.10;;;;;;;5.91;100.00;98296.17;1754576;81;21837;-76
2022/02/18 04:03:10;;;;;;;43.68;21.23;;;;;;;5.86;100.00;98300.00;1746480;81;21756;-76
2022/02/18 04:06:33;;;;;;;35.65;19.90;;;;;;;5.86;100.00;98299.47;1707242;82;21314;-84
2022/02/18 04:09:59;;;;;;;52.85;24.67;;;;;;;5.90;100.00;98304.84;1722379;82;21279;-80
2022/02/18 04:13:06;;;;;;;40.50;20.72;;;;;;;5.94;100.00;98307.20;1764655;81;21295;-76
2022/02/18 04:16:06;;;;;;;45.98;23.00;;;;;;;5.98;100.00;98314.76;1770099;81;21271;-84
2022/02/18 04:19:06;;;;;;;29.77;19.15;;;;;;;5.98;100.00;98316.12;1777277;80;21141;-76
2022/02/18 04:22:14;;;;;;;45.40;22.98;;;;;;;5.96;100.00;98318.69;1777978;80;21319;-76
2022/02/18 04:25:19;;;;;;;45.38;20.92;;;;;;;5.92;100.00;98322.30;1778000;80;22204;-80
2022/02/18 04:28:24;;;;;;;45.38;22.67;;;;;;;5.96;100.00;98325.47;1750707;80;21326;-76
2022/02/18 04:31:30;;;;;;;44.30;22.40;;;;;;;5.98;100.00;98324.26;1747002;80;21323;-76
2022/02/18 04:34:35;;;;;;;44.48;23.20;;;;;;;6.04;100.00;98333.48;1747000;82;21279;-76
2022/02/18 04:37:41;;;;;;;44.23;21.05;;;;;;;6.05;100.00;98347.37;1747019;82;21586;-76
2022/02/18 04:40:46;;;;;;;45.60;23.62;;;;;;;6.06;100.00;98358.55;1749379;80;21334;-77
2022/02/18 04:43:51;;;;;;;55.73;26.25;;;;;;;6.11;100.00;98357.44;1747069;82;21280;-76
2022/02/18 04:46:55;;;;;;;49.90;25.23;;;;;;;6.18;100.00;98351.56;1746520;82;21908;-84
2022/02/18 04:50:02;;;;;;;45.88;22.22;;;;;;;6.20;100.00;98356.27;1748970;80;21868;-75
2022/02/18 04:53:09;;;;;;;54.50;25.40;;;;;;;6.21;100.00;98353.91;1746520;80;21331;-84
2022/02/18 04:56:14;;;;;;;53.70;26.35;;;;;;;6.16;100.00;98354.98;1759810;81;21149;-76
2022/02/18 04:59:21;;;;;;;54.15;25.82;;;;;;;6.14;100.00;98367.40;1760545;80;21298;-76
2022/02/18 05:02:25;;;;;;;59.45;28.05;;;;;;;6.13;100.00;98366.25;1733454;82;21317;-85
2022/02/18 05:05:31;;;;;;;55.70;26.65;;;;;;;6.13;100.00;98372.52;1683044;85;21297;-82
2022/02/18 05:08:35;;;;;;;66.90;26.95;;;;;;;6.13;100.00;98378.46;1704058;83;21295;-76
2022/02/18 05:11:40;;;;;;;55.12;24.60;;;;;;;6.14;100.00;98381.48;1710915;84;21900;-76
2022/02/18 05:14:48;;;;;;;58.02;26.93;;;;;;;6.06;100.00;98377.55;1709683;82;21271;-84
2022/02/18 05:17:54;;;;;;;70.03;28.83;;;;;;;5.97;100.00;98374.64;1709209;84;21423;-76
2022/02/18 05:21:01;;;;;;;53.00;26.55;;;;;;;5.96;100.00;98375.67;1710875;84;21283;-85
2022/02/18 05:24:06;;;;;;;52.48;26.17;;;;;;;5.95;100.00;98374.84;1711126;83;21334;-84
2022/02/18 05:27:12;;;;;;;51.10;27.10;;;;;;;5.94;100.00;98390.80;1709399;84;21299;-85
2022/02/18 05:30:18;;;;;;;49.67;26.12;;;;;;;5.94;100.00;98394.04;1713742;83;21260;-76
2022/02/18 05:33:24;;;;;;;56.13;26.17;;;;;;;5.97;100.00;98397.70;1706282;83;21723;-76
2022/02/18 05:36:32;;;;;;;50.80;25.30;;;;;;;5.97;100.00;98401.77;1707273;83;22001;-85
2022/02/18 05:39:37;;;;;;;49.60;25.25;;;;;;;6.02;100.00;98411.53;1704239;83;21346;-76
2022/02/18 05:42:43;;;;;;;49.73;25.05;;;;;;;6.03;100.00;98401.02;1701813;83;21721;-76
2022/02/18 05:45:50;;;;;;;53.35;26.80;;;;;;;6.04;100.00;98410.84;1695623;84;21830;-78
2022/02/18 05:48:55;;;;;;;52.65;25.72;;;;;;;6.07;100.00;98421.28;1704087;83;21393;-79
2022/02/18 05:52:00;;;;;;;47.30;24.27;;;;;;;6.09;100.00;98409.73;1691145;84;21954;-85
2022/02/18 05:55:07;;;;;;;56.90;24.32;;;;;;;6.13;100.00;98419.17;1703226;82;21379;-76
2022/02/18 05:58:12;;;;;;;45.70;23.95;;;;;;;6.11;100.00;98422.58;1713448;83;21287;-84
2022/02/18 06:01:20;;;;;;;43.68;23.65;;;;;;;6.09;100.00;98419.23;1722071;83;21843;-75
2022/02/18 06:04:26;;;;;;;45.92;24.32;;;;;;;6.14;100.00;98412.19;1713120;83;21849;-79
2022/02/18 06:07:31;;;;;;;41.77;22.70;;;;;;;6.14;100.00;98423.56;1706093;83;21212;-84
2022/02/18 06:10:38;;;;;;;47.95;24.18;;;;;;;6.14;100.00;98438.50;1711086;83;21816;-84
2022/02/18 06:13:44;;;;;;;49.38;24.63;;;;;;;6.07;100.00;98445.23;1721198;83;21316;-75
2022/02/18 06:16:50;;;;;;;43.30;22.82;;;;;;;6.03;100.00;98453.95;1710672;83;21184;-75
2022/02/18 06:19:56;;;;;;;47.88;24.10;;;;;;;6.03;100.00;98448.52;1703089;83;21771;-85
2022/02/18 06:23:01;;;;;;;64.62;25.60;;;;;;;6.04;100.00;98452.39;1706332;83;21364;-84
2022/02/18 06:26:07;;;;;;;44.03;23.60;;;;;;;6.05;100.00;98447.28;1705688;83;21893;-76
2022/02/18 06:29:13;;;;;;;50.50;24.87;;;;;;;6.17;100.00;98438.64;1751814;81;21161;-85
2022/02/18 06:32:18;;;;;;;53.15;24.72;;;;;;;6.29;100.00;98431.12;1750876;81;21739;-76
2022/02/18 06:35:24;;;;;;;46.00;25.35;;;;;;;6.48;100.00;98443.20;1745155;81;21280;-76
2022/02/18 06:38:30;;;;;;;50.17;24.25;;;;;;;6.61;100.00;98433.81;1751309;81;22207;-76
2022/02/18 06:41:35;;;;;;;46.68;22.80;;;;;;;6.75;100.00;98435.28;1750987;81;21272;-76
2022/02/18 06:44:41;;;;;;;42.23;21.95;;;;;;;6.87;100.00;98434.55;1742829;81;21324;-76
2022/02/18 06:47:47;;;;;;;39.73;20.75;;;;;;;6.98;100.00;98438.58;1753317;81;21852;-76
2022/02/18 06:50:54;;;;;;;48.02;24.85;;;;;;;7.07;100.00;98441.99;1744708;81;21350;-76
2022/02/18 06:53:59;;;;;;;44.63;21.42;;;;;;;7.09;100.00;98436.66;1756066;81;21343;-76
2022/02/18 06:57:07;;;;;;;35.40;19.75;;;;;;;7.11;100.00;98441.91;1715037;82;21189;-76
2022/02/18 07:00:14;;;;;;;34.88;17.35;;;;;;;7.10;100.00;98441.58;1747731;81;21848;-76
2022/02/18 07:03:23;;;;;;;27.32;17.48;;;;;;;7.13;100.00;98457.50;1755767;81;21153;-76
2022/02/18 07:06:27;;;;;;;31.27;18.20;;;;;;;7.10;99.25;98465.52;1749167;81;21793;-76
2022/02/18 07:09:32;;;;;;;32.28;19.55;;;;;;;7.09;98.39;98469.28;1759765;81;21287;-75
2022/02/18 07:12:37;;;;;;;31.00;16.30;;;;;;;7.08;97.37;98480.36;1687527;84;21168;-76
2022/02/18 07:15:45;;;;;;;29.60;17.30;;;;;;;7.13;97.25;98488.77;1760778;81;21185;-76
2022/02/18 07:18:51;;;;;;;30.60;16.27;;;;;;;7.23;96.50;98500.13;1759387;81;21313;-76
2022/02/18 07:21:56;;;;;;;26.90;15.03;;;;;;;7.34;95.82;98496.00;1761691;81;21379;-76
2022/02/18 07:25:01;;;;;;;23.00;14.38;;;;;;;7.37;94.36;98492.37;1754626;81;21267;-76
2022/02/18 07:28:06;;;;;;;23.42;13.35;;;;;;;7.41;92.80;98492.81;1757942;81;21296;-76
2022/02/18 07:31:12;;;;;;;21.42;14.30;;;;;;;7.43;92.14;98496.16;1760139;81;21766;-86
2022/02/18 07:34:17;;;;;;;24.15;13.85;;;;;;;7.42;90.83;98517.09;1755756;81;21304;-85
2022/02/18 07:37:22;;;;;;;24.15;14.43;;;;;;;7.38;90.54;98515.80;1755536;81;21324;-85
2022/02/18 07:40:27;;;;;;;21.70;13.90;;;;;;;7.36;90.95;98521.14;1751553;81;21622;-85
2022/02/18 07:43:33;;;;;;;23.15;14.83;;;;;;;7.32;89.53;98519.33;1752346;81;21279;-85
2022/02/18 07:46:38;;;;;;;23.27;14.23;;;;;;;7.25;89.53;98516.27;1752617;79;21317;-83
2022/02/18 07:49:47;;;;;;;21.77;13.60;;;;;;;7.24;89.52;98522.19;1745520;80;21817;-83
2022/02/18 07:52:53;;;;;;;22.10;13.80;;;;;;;7.21;88.95;98517.17;1717993;82;21298;-84
2022/02/18 07:55:59;;;;;;;26.10;13.68;;;;;;;7.20;87.84;98523.66;1762926;81;21280;-84
2022/02/18 07:59:05;;;;;;;22.37;11.88;;;;;;;7.15;87.88;98528.33;1745937;81;21303;-84
2022/02/18 08:02:11;;;;;;;20.52;11.63;;;;;;;7.12;87.89;98539.59;1752237;79;21629;-85
2022/02/18 08:05:19;;;;;;;24.65;12.68;;;;;;;7.04;86.52;98533.45;1742284;81;21252;-85
2022/02/18 08:08:24;;;;;;;25.60;12.63;;;;;;;7.05;87.04;98536.48;1753765;79;21307;-84
2022/02/18 08:11:30;;;;;;;20.68;11.43;;;;;;;7.00;87.36;98539.79;1749771;81;21334;-84
2022/02/18 08:14:38;;;;;;;19.32;11.20;;;;;;;6.98;86.81;98541.88;1746217;81;22264;-84
2022/02/18 08:17:49;;;;;;;17.65;10.15;;;;;;;7.02;86.83;98535.53;1751529;80;21269;-84
2022/02/18 08:21:09;;;;;;;14.20;9.18;;;;;;;7.01;86.98;98539.27;1772386;80;21295;-83
2022/02/18 08:24:18;;;;;;;16.12;9.20;;;;;;;6.99;86.22;98538.64;1759796;80;21296;-83
2022/02/18 08:27:22;;;;;;;17.75;9.45;;;;;;;7.00;85.88;98551.19;1765271;80;22054;-75
2022/02/18 08:30:28;;;;;;;14.43;9.13;;;;;;;7.04;85.60;98555.20;1760946;80;21334;-75
2022/02/18 08:33:35;;;;;;;18.92;8.08;;;;;;;7.10;86.68;98543.52;1759956;80;21165;-76
2022/02/18 08:36:41;;;;;;;15.32;9.30;;;;;;;7.20;85.68;98545.41;1724292;81;21341;-76
2022/02/18 08:39:49;;;;;;;12.98;8.63;;;;;;;7.23;84.94;98550.95;1699437;83;21197;-76
2022/02/18 08:42:55;;;;;;;12.78;7.80;;;;;;;7.23;85.18;98547.71;1692890;83;21322;-75
2022/02/18 08:46:01;;;;;;;12.98;7.20;;;;;;;7.25;85.64;98544.30;1685268;84;21299;-84
2022/02/18 08:49:07;;;;;;;11.18;6.10;;;;;;;7.29;85.98;98538.78;1719717;82;21827;-85
2022/02/18 08:52:14;;;;;;;12.60;6.08;;;;;;;7.33;86.05;98541.40;1727418;82;21930;-86
2022/02/18 08:55:22;;;;;;;10.58;6.03;;;;;;;7.32;83.59;98548.41;1728741;82;21156;-76
2022/02/18 08:58:28;;;;;;;9.48;5.62;;;;;;;7.30;85.05;98554.06;1693107;84;21212;-83
2022/02/18 09:01:35;;;;;;;12.33;5.80;;;;;;;7.32;83.58;98560.65;1733764;80;62092;-78
2022/02/18 09:04:42;;;;;;;7.58;5.42;;;;;;;7.35;84.60;98557.55;1770554;79;21752;-78
2022/02/18 09:07:47;;;;;;;9.35;5.78;;;;;;;7.41;83.56;98549.94;1764891;79;21303;-79
2022/02/18 09:10:52;;;;;;;9.60;5.40;;;;;;;7.43;83.17;98558.23;1729587;80;21351;-79
2022/02/18 09:13:58;;;;;;;9.80;5.28;;;;;;;7.41;83.20;98564.38;1718449;82;21245;-79
2022/02/18 09:17:05;;;;;;;7.78;5.35;;;;;;;7.36;82.87;98555.14;1736958;81;21720;-79
2022/02/18 09:20:12;;;;;;;9.18;5.15;;;;;;;7.37;82.24;98548.66;1772744;79;21294;-79
2022/02/18 09:23:18;;;;;;;10.20;4.95;;;;;;;7.41;83.11;98548.58;1724905;81;21334;-78
2022/02/18 09:26:26;;;;;;;9.55;5.28;;;;;;;7.48;83.55;98558.13;1742141;81;21320;-79
2022/02/18 09:29:31;;;;;;;7.40;5.17;;;;;;;7.54;83.21;98564.16;1743803;81;22306;-81
2022/02/18 09:32:38;;;;;;;7.55;4.90;;;;;;;7.64;83.08;98567.36;1744626;80;21768;-79
2022/02/18 09:35:43;;;;;;;7.42;5.20;;;;;;;7.74;83.69;98565.64;1738393;81;21311;-79
2022/02/18 09:38:48;;;;;;;6.90;5.17;;;;;;;7.80;82.17;98577.08;1739156;80;21755;-79
2022/02/18 09:41:54;;;;;;;8.50;5.45;;;;;;;7.81;82.39;98578.25;1746671;80;21315;-79
2022/02/18 09:44:59;;;;;;;9.45;5.90;;;;;;;7.85;81.73;98585.47;1706530;82;21311;-79
2022/02/18 09:48:03;;;;;;;8.88;5.17;;;;;;;7.83;80.57;98587.05;1722895;82;21290;-78
2022/02/18 09:51:08;;;;;;;8.48;5.20;;;;;;;7.81;80.94;98585.55;1741950;81;21338;-79
2022/02/18 09:54:14;;;;;;;8.43;5.12;;;;;;;7.78;80.47;98591.41;1734404;80;21326;-78
2022/02/18 09:57:21;;;;;;;9.38;4.30;;;;;;;7.76;81.06;98598.40;1738910;80;21299;-79
2022/02/18 10:00:28;;;;;;;6.78;5.03;;;;;;;7.76;80.16;98608.45;1711062;81;21326;-79
2022/02/18 10:03:34;;;;;;;10.23;4.72;;;;;;;7.73;81.00;98619.23;1723735;81;21259;-80
2022/02/18 10:06:41;;;;;;;7.97;4.45;;;;;;;7.71;82.16;98618.57;1720336;82;21385;-80
2022/02/18 10:09:52;;;;;;;6.80;4.45;;;;;;;7.71;82.44;98619.93;1716749;82;22004;-80
2022/02/18 10:12:56;;;;;;;;;;;;;;;7.65;82.89;98620.21;1734644;82;21299;-79
2022/02/18 10:16:01;;;;;;;6.55;4.17;;;;;;;7.54;82.13;98633.54;1726346;82;20201;-78
2022/02/18 10:19:11;;;;;;;6.28;4.40;;;;;;;7.49;82.36;98632.77;1720193;81;21330;-79
2022/02/18 10:22:16;;;;;;;5.80;3.73;;;;;;;7.53;83.81;98637.27;1723603;81;21471;-78
2022/02/18 10:25:22;;;;;;;7.70;3.75;;;;;;;7.58;80.48;98641.63;1689038;83;21343;-78
2022/02/18 10:28:27;;;;;;;7.30;3.77;;;;;;;7.57;78.92;98648.09;1654079;83;21287;-79
2022/02/18 10:31:46;;;;;;;5.75;4.00;;;;;;;7.60;79.74;98651.78;1842130;76;23239;-80
2022/02/18 10:35:02;;;;;;;5.87;3.87;;;;;;;7.53;80.10;98654.47;1819478;77;21842;-79
2022/02/18 10:38:09;;;;;;;6.83;4.22;;;;;;;7.51;80.99;98656.52;1817697;77;21263;-79
2022/02/18 10:41:29;;;;;;;7.75;5.00;;;;;;;7.43;81.45;98657.53;1816926;77;21291;-79
2022/02/18 10:44:38;;;;;;;6.92;3.77;;;;;;;7.34;82.24;98668.22;1820224;77;21310;-79
2022/02/18 10:47:45;;;;;;;6.83;3.45;;;;;;;7.23;82.99;98670.09;1823322;77;21247;-79
2022/02/18 10:50:51;;;;;;;6.25;3.62;;;;;;;7.15;82.66;98675.65;1821102;77;21904;-79
2022/02/18 10:53:59;;;;;;;9.05;4.22;;;;;;;7.12;82.00;98685.05;1824538;77;21345;-79
2022/02/18 10:57:28;;;;;;;7.28;3.42;;;;;;;7.12;81.72;98697.81;1820806;77;21144;-79
2022/02/18 11:00:34;;;;;;;5.15;3.12;;;;;;;7.10;81.15;98696.63;1815058;77;21855;-80
2022/02/18 11:03:40;;;;;;;6.22;4.10;;;;;;;7.13;81.67;98700.84;1821855;77;21247;-82
2022/02/18 11:06:47;;;;;;;5.35;3.70;;;;;;;7.16;82.06;98701.83;1817170;77;21635;-83
2022/02/18 11:09:52;;;;;;;11.18;5.40;;;;;;;7.18;81.89;98707.38;1823108;77;21251;-82
2022/02/18 11:13:02;;;;;;;22.42;11.50;;;;;;;7.20;82.43;98696.33;1818341;77;21168;-80
2022/02/18 11:16:08;;;;;;;5.22;4.30;;;;;;;7.28;83.29;98693.45;1818955;77;21850;-80
2022/02/18 11:19:13;;;;;;;6.15;4.08;;;;;;;7.46;83.61;98697.61;1827261;77;21297;-80
2022/02/18 11:22:21;;;;;;;6.30;4.17;;;;;;;7.60;81.20;98710.29;1823319;77;21292;-80
2022/02/18 11:25:25;;;;;;;6.67;3.30;;;;;;;7.64;80.48;98715.14;1818200;77;21572;-80
2022/02/18 11:28:38;;;;;;;9.63;3.77;;;;;;;7.59;80.02;98729.86;1791718;79;21302;-80
2022/02/18 11:31:56;;;;;;;5.58;4.03;;;;;;;7.47;79.81;98734.65;1731915;82;21877;-80
2022/02/18 11:35:41;;;;;;;6.97;3.90;;;;;;;7.35;80.43;98738.42;1731846;82;21263;-80
2022/02/18 11:39:28;;;;;;;6.78;4.45;;;;;;;7.22;80.85;98747.80;1733364;82;21326;-80
2022/02/18 11:42:52;;;;;;;7.22;4.92;;;;;;;7.08;81.09;98757.68;1725527;82;21315;-79
2022/02/18 11:46:11;;;;;;;7.15;4.60;;;;;;;6.94;81.92;98767.55;1706566;82;21208;-79
2022/02/18 11:49:16;;;;;;;5.45;3.72;;;;;;;6.85;82.86;98777.69;1741647;81;22310;-79
2022/02/18 11:52:24;;;;;;;4.75;3.60;;;;;;;6.77;83.28;98775.06;1745831;81;21232;-79
2022/02/18 11:55:43;;;;;;;4.75;3.52;;;;;;;6.73;83.48;98785.14;1741701;81;22255;-79
2022/02/18 11:59:03;;;;;;;8.38;3.85;;;;;;;6.71;82.66;98786.70;1752064;81;21611;-79
2022/02/18 12:02:15;;;;;;;7.55;3.90;;;;;;;6.67;82.96;98798.97;1743801;81;21176;-79
2022/02/18 12:05:22;;;;;;;10.03;5.30;;;;;;;6.60;83.80;98802.13;1731418;81;21276;-79
2022/02/18 12:08:35;;;;;;;8.93;4.35;;;;;;;6.53;83.96;98815.59;1725788;82;21737;-79
2022/02/18 12:11:50;;;;;;;5.28;3.67;;;;;;;6.42;82.59;98825.58;1724121;81;21311;-79
2022/02/18 12:14:57;;;;;;;9.55;4.60;;;;;;;6.27;81.14;98833.70;1719338;82;21345;-79
2022/02/18 12:18:13;;;;;;;5.45;3.80;;;;;;;6.16;81.67;98842.28;1726655;82;22368;-80
2022/02/18 12:21:21;;;;;;;5.45;3.12;;;;;;;6.08;81.26;98854.08;1726471;82;21675;-79
2022/02/18 12:24:52;;;;;;;6.47;2.92;;;;;;;6.03;81.55;98869.23;1724968;82;21272;-79
2022/02/18 12:28:02;;;;;;;6.55;2.98;;;;;;;5.98;80.37;98868.93;1716669;82;21279;-79
2022/02/18 12:31:12;;;;;;;4.42;2.70;;;;;;;5.96;81.07;98875.88;1672954;82;21240;-79
2022/02/18 12:34:22;;;;;;;4.20;2.45;;;;;;;5.99;80.62;98882.83;1687635;82;21627;-79
2022/02/18 12:37:27;;;;;;;3.58;2.50;;;;;;;5.99;80.60;98872.81;1701135;83;21209;-79
2022/02/18 12:40:32;;;;;;;5.45;2.50;;;;;;;6.01;79.84;98891.10;1699922;83;22302;-79
2022/02/18 12:43:37;;;;;;;3.62;2.62;;;;;;;6.02;79.35;98892.81;1711769;82;21553;-79
2022/02/18 12:46:43;;;;;;;3.87;2.37;;;;;;;6.05;79.24;98901.09;1689995;83;21323;-79
2022/02/18 12:49:52;;;;;;;3.50;2.27;;;;;;;6.05;78.78;98903.81;1697300;82;21314;-79
2022/02/18 12:53:00;;;;;;;3.02;2.40;;;;;;;6.03;78.65;98899.09;1695796;83;21319;-79
2022/02/18 12:56:06;;;;;;;3.92;2.60;;;;;;;6.01;78.41;98904.67;1723992;82;21270;-79
2022/02/18 12:59:13;;;;;;;4.15;2.60;;;;;;;6.02;78.66;98909.10;1699596;83;21790;-79
2022/02/18 13:02:18;;;;;;;7.42;2.55;;;;;;;6.06;78.41;98916.34;1699919;84;21211;-79
2022/02/18 13:05:32;;;;;;;2.60;2.10;;;;;;;6.09;77.99;98925.50;1700322;83;21273;-79
2022/02/18 13:08:38;;;;;;;4.62;2.47;;;;;;;6.13;77.50;98931.73;1706684;83;21323;-79
2022/02/18 13:11:45;;;;;;;2.60;1.90;;;;;;;6.18;76.94;98935.27;1719524;81;21912;-79
2022/02/18 13:14:51;;;;;;;4.28;1.87;;;;;;;6.21;76.95;98942.19;1696433;83;21252;-79
2022/02/18 13:18:00;;;;;;;3.00;1.92;;;;;;;6.21;76.36;98947.13;1701580;83;21348;-79
2022/02/18 13:21:06;;;;;;;2.77;2.10;;;;;;;6.20;76.55;98967.14;1727625;81;21290;-79
2022/02/18 13:24:12;;;;;;;2.75;2.00;;;;;;;6.17;77.15;98971.59;1722695;82;21350;-79
2022/02/18 13:27:21;;;;;;;2.42;1.55;;;;;;;6.10;76.34;98975.53;1691432;83;21211;-79
2022/02/18 13:30:29;;;;;;;2.58;1.87;;;;;;;6.04;75.27;98983.05;1724553;82;21295;-79
2022/02/18 13:33:37;;;;;;;3.98;2.17;;;;;;;5.96;75.18;98988.52;1692089;83;21308;-79
2022/02/18 13:36:42;;;;;;;5.47;2.62;;;;;;;5.89;76.35;99001.09;1686591;84;21312;-79
2022/02/18 13:39:55;;;;;;;3.52;2.05;;;;;;;5.83;77.49;99009.44;1679239;84;21190;-79
2022/02/18 13:43:03;;;;;;;4.15;2.52;;;;;;;5.80;78.34;99003.00;1684215;84;21890;-78
2022/02/18 13:46:10;;;;;;;5.22;3.00;;;;;;;5.73;78.46;99016.92;1699734;83;21308;-78
2022/02/18 13:49:23;;;;;;;3.45;2.37;;;;;;;5.66;78.80;99024.09;1698447;83;21934;-79
2022/02/18 13:52:28;;;;;;;4.30;2.42;;;;;;;5.56;79.00;99026.17;1697168;83;22539;-78
2022/02/18 13:55:34;;;;;;;3.25;2.40;;;;;;;5.45;79.39;99026.02;1697448;83;21330;-79
2022/02/18 13:58:40;;;;;;;7.15;2.47;;;;;;;5.38;79.96;99031.31;1697860;83;22020;-79
2022/02/18 14:01:46;;;;;;;5.87;3.00;;;;;;;5.33;80.72;99030.98;1683320;84;21803;-79
2022/02/18 14:04:58;;;;;;;4.83;3.12;;;;;;;5.30;81.12;99038.10;1682753;84;21843;-79
2022/02/18 14:08:20;;;;;;;5.05;2.50;;;;;;;5.26;80.84;99053.02;1708603;83;21299;-79
2022/02/18 14:11:25;;;;;;;5.70;3.22;;;;;;;5.25;80.83;99056.76;1711739;83;21724;-78
2022/02/18 14:14:30;;;;;;;6.53;3.00;;;;;;;5.25;81.11;99068.95;1647602;85;21725;-78
2022/02/18 14:17:42;;;;;;;6.47;3.12;;;;;;;5.26;80.39;99070.64;1710038;83;21312;-79
2022/02/18 14:20:49;;;;;;;4.25;2.70;;;;;;;5.23;80.10;99076.43;1680115;84;21746;-79
2022/02/18 14:23:56;;;;;;;5.12;3.30;;;;;;;5.22;80.29;99081.52;1683734;84;21205;-79
2022/02/18 14:27:02;;;;;;;5.05;3.47;;;;;;;5.21;79.99;99082.52;1690080;83;21379;-78
2022/02/18 14:30:12;;;;;;;6.50;3.17;;;;;;;5.20;80.32;99079.98;1694067;83;21245;-81
2022/02/18 14:33:35;;;;;;;6.58;3.70;;;;;;;5.19;80.66;99091.34;1692177;83;21571;-79